Airfield :
LOGIN :

Register | Disclaimer

   EN    FR    IT 

 










Legend :    VFR   Marginal VFR   IFR   Intensive IFR   Very Intensive IFR
Visi :
Ceiling :
>= 8 km
>= 3000ft
5 to 8 km
1000 to 3000 ft
1500m to 5 km
500 to 1000 ft
800 to 1500m
200 to 500 ft
< 800m
< 200 ft
Symbols :   Thunderstorms  Fog  Heavy snow  Heavy precipitations  Wind > 20 kt
SIGMETs :     Misc.  Thunderstorms  Icing  Turbulence  Mountain Waves  Volcanic Ashes







- Airport Elevation : 458 ft
- Download approach charts


LFSI - St-Dizier

CURRENT METAR :
  • 171700Z AUTO 23003KT CAVOK 24/17 Q1017

EXPIRED METARs :
  • 171630Z AUTO 26006KT CAVOK 24/17 Q1017
  • 171600Z AUTO 26006KT CAVOK 24/17 Q1017
  • 171530Z AUTO 22006KT 200V260 CAVOK 25/15 Q1018
  • 171500Z AUTO 23009KT 200V260 9999 OVC049 25/14 Q1018
  • 171430Z AUTO 22010KT 190V260 CAVOK 26/15 Q1018

TAF TAF LFSI
Valid from the 17 at 15:00 until the 18 at 15:00 UTC


171400Z 1715/1815 22010KT CAVOK
TEMPO 1719/1724 SHRA BKN030TCU
BECMG 1805/1806 BKN013
TEMPO 1807/1809 4000 RA BKN010
No reported NOTAMs for that airfield.



MET'MAP, your aeronautical weather chart ! - Copyright ORBIFLY December 2007 - Disclaimer

ORBIFLY MET'MAP TEAM :

Programming & Development : Alexandra Zaïnal
Concept & Development : Baudouin d'Aumeries
Co-Development & Prog : Marc-Olivier Méhu
Technical & hardware support : Manuel Goepfert

Contact : metmap@orbifly.com




SOURCES & CREDITS :

   NOAA